Time;durP1;ratioP1;P1;durP2;ratioP2;P2;SDS_P1;SDS_P2;PMS_P1;PMS_P2;Temp;Humidity;BMP_temperature;BMP_pressure;BME280_temperature;BME280_humidity;BME280_pressure;Samples;Min_cycle;Max_cycle;Signal;HPM_P1;HPM_P2
2021/09/23 00:00:20;;;;;;;;;17.60;16.80;;;;;18.51;53.13;101821.25;2082568;28;47214;-58
2021/09/23 00:01:26;;;;;;;;;17.00;16.40;;;;;18.50;52.89;101819.50;2074401;28;47915;-58
2021/09/23 00:02:46;;;;;;;;;18.20;16.60;;;;;18.51;53.18;101825.75;2074690;28;48442;-58
2021/09/23 00:04:56;;;;;;;;;16.00;15.40;;;;;18.49;53.48;101809.69;2083484;28;45381;-58
2021/09/23 00:05:58;;;;;;;;;16.75;16.25;;;;;18.50;53.44;101813.25;2082789;28;46664;-58
2021/09/23 00:07:01;;;;;;;;;17.00;15.40;;;;;18.49;53.23;101806.13;2082387;28;48560;-58
2021/09/23 00:08:02;;;;;;;;;18.00;17.00;;;;;18.48;53.26;101810.63;2082153;28;48341;-58
2021/09/23 00:09:05;;;;;;;;;21.20;18.20;;;;;18.48;53.33;101810.63;2082947;28;47643;-58
2021/09/23 00:10:07;;;;;;;;;19.00;17.40;;;;;18.47;53.35;101800.81;2083011;28;46373;-58
2021/09/23 00:11:08;;;;;;;;;21.40;19.40;;;;;18.45;53.36;101805.38;2082917;28;47684;-58
2021/09/23 00:12:08;;;;;;;;;17.50;15.25;;;;;18.46;53.19;101803.56;2081363;28;46142;-58
2021/09/23 00:13:10;;;;;;;;;13.75;13.75;;;;;18.44;53.45;101803.59;2077822;28;47222;-58
2021/09/23 00:14:11;;;;;;;;;15.20;14.40;;;;;18.44;53.67;101813.50;2082494;28;47261;-58
2021/09/23 00:15:14;;;;;;;;;18.00;15.00;;;;;18.42;53.48;101805.47;2082912;28;48386;-58
2021/09/23 00:16:15;;;;;;;;;18.00;17.20;;;;;18.42;53.66;101804.56;2087779;28;49041;-59
2021/09/23 00:17:16;;;;;;;;;17.00;15.50;;;;;18.40;53.64;101804.63;2087793;28;47267;-58
2021/09/23 00:18:18;;;;;;;;;17.00;17.00;;;;;18.41;53.69;101803.69;2083246;28;48426;-56
2021/09/23 00:19:19;;;;;;;;;14.40;14.40;;;;;18.41;53.72;101803.69;2082910;28;46085;-58
2021/09/23 00:20:22;;;;;;;;;17.60;17.60;;;;;18.41;53.78;101803.69;2082430;28;46166;-58
2021/09/23 00:21:22;;;;;;;;;16.00;16.00;;;;;18.41;53.57;101811.75;2082348;28;47319;-58
2021/09/23 00:22:23;;;;;;;;;17.00;14.50;;;;;18.41;53.60;101808.19;2083235;28;47675;-58
2021/09/23 00:23:24;;;;;;;;;18.00;18.00;;;;;18.40;53.60;101803.75;2089948;28;47107;-58
2021/09/23 00:24:26;;;;;;;;;16.40;16.40;;;;;18.40;53.44;101803.75;2082720;28;46530;-57
2021/09/23 00:25:27;;;;;;;;;16.40;15.80;;;;;18.40;53.65;101811.81;2082692;28;47634;-58
2021/09/23 00:26:27;;;;;;;;;15.60;13.80;;;;;18.39;53.53;101802.88;2083276;28;46996;-59
2021/09/23 00:27:28;;;;;;;;;16.50;15.75;;;;;18.40;53.62;101804.63;2082709;28;46986;-58
2021/09/23 00:28:28;;;;;;;;;18.00;17.00;;;;;18.39;53.55;101800.19;2082977;28;47381;-57
2021/09/23 00:29:29;;;;;;;;;19.50;18.75;;;;;18.39;53.33;101804.69;2082934;28;45406;-58
2021/09/23 00:30:31;;;;;;;;;15.75;15.75;;;;;18.38;53.48;101806.50;2076301;28;47002;-58
2021/09/23 00:31:32;;;;;;;;;22.40;18.00;;;;;18.38;53.31;101808.31;2080324;28;48704;-58
2021/09/23 00:32:32;;;;;;;;;15.00;15.00;;;;;18.36;53.32;101810.19;2082372;28;47210;-58
2021/09/23 00:33:33;;;;;;;;;15.75;14.75;;;;;18.36;53.66;101807.50;2086773;28;48415;-59
2021/09/23 00:34:33;;;;;;;;;16.75;16.75;;;;;18.35;53.34;101814.69;2082443;28;48189;-58
2021/09/23 00:35:34;;;;;;;;;17.75;17.75;;;;;18.35;53.45;101806.63;2073761;28;48603;-59
2021/09/23 00:36:34;;;;;;;;;15.75;14.75;;;;;18.34;53.46;101809.38;2082676;28;48198;-59
2021/09/23 00:37:35;;;;;;;;;15.00;14.25;;;;;18.34;53.57;101810.25;2091884;28;48624;-58
2021/09/23 00:38:35;;;;;;;;;14.60;13.20;;;;;18.34;53.43;101807.56;2091882;28;48033;-58
2021/09/23 00:39:36;;;;;;;;;14.50;14.50;;;;;18.34;53.62;101807.56;2077023;28;48235;-58
2021/09/23 00:40:36;;;;;;;;;14.25;14.25;;;;;18.33;53.61;101800.44;2083865;28;47829;-58
2021/09/23 00:41:37;;;;;;;;;17.00;14.75;;;;;18.33;53.35;101802.25;2078842;28;46233;-58
2021/09/23 00:42:39;;;;;;;;;13.50;13.50;;;;;18.33;53.43;101803.13;2076151;28;47389;-58
2021/09/23 00:43:40;;;;;;;;;16.60;16.40;;;;;18.32;53.61;101800.50;2083877;28;47705;-58
2021/09/23 00:44:52;;;;;;;;;16.00;16.00;;;;;18.32;53.54;101801.38;2084568;28;47462;-58
2021/09/23 00:45:52;;;;;;;;;12.80;12.00;;;;;18.31;53.42;101793.38;2084094;28;48107;-58
2021/09/23 00:46:53;;;;;;;;;16.75;16.50;;;;;18.31;53.47;101796.94;2083846;28;47827;-59
2021/09/23 00:47:53;;;;;;;;;17.25;15.50;;;;;18.31;53.64;101801.44;2083299;28;47103;-58
2021/09/23 00:48:53;;;;;;;;;14.75;14.75;;;;;18.30;53.68;101805.06;2084501;28;47328;-58
2021/09/23 00:49:55;;;;;;;;;14.00;13.00;;;;;18.29;53.51;101803.28;2087820;28;45274;-58
2021/09/23 00:50:58;;;;;;;;;15.20;13.60;;;;;18.28;53.65;101806.91;2091084;28;47398;-58
2021/09/23 00:51:58;;;;;;;;;14.20;14.20;;;;;18.28;53.57;101798.84;2084191;28;47506;-58
2021/09/23 00:52:59;;;;;;;;;15.25;15.00;;;;;18.26;53.56;101798.91;2084105;28;47252;-59
2021/09/23 00:54:01;;;;;;;;;16.00;14.75;;;;;18.26;53.34;101798.91;2084212;28;48372;-59
2021/09/23 00:55:03;;;;;;;;;17.80;16.40;;;;;18.26;53.68;101795.31;2084180;28;48013;-58
2021/09/23 00:56:04;;;;;;;;;16.20;14.40;;;;;18.25;53.42;101794.47;2084244;28;47297;-58
2021/09/23 00:57:05;;;;;;;;;16.00;16.00;;;;;18.24;53.80;101793.59;2084254;28;47204;-58
2021/09/23 00:58:05;;;;;;;;;14.25;13.50;;;;;18.24;53.70;101790.00;2084117;28;47941;-58
2021/09/23 00:59:06;;;;;;;;;13.25;13.25;;;;;18.25;53.80;101797.13;2084137;28;47383;-58
2021/09/23 01:00:10;;;;;;;;;17.50;15.75;;;;;18.24;54.00;101790.00;2084373;28;47272;-58
2021/09/23 01:01:10;;;;;;;;;15.20;14.60;;;;;18.23;53.82;101786.44;2084113;28;48061;-58
2021/09/23 01:02:11;;;;;;;;;16.50;15.00;;;;;18.23;53.73;101786.44;2083582;28;47047;-59
2021/09/23 01:03:12;;;;;;;;;17.00;16.00;;;;;18.21;53.77;101784.75;2083045;28;47466;-58
2021/09/23 01:04:13;;;;;;;;;15.75;14.25;;;;;18.22;53.71;101778.44;2084331;28;47186;-58
2021/09/23 01:05:14;;;;;;;;;15.40;14.40;;;;;18.19;53.88;101771.38;2083958;28;47952;-58
2021/09/23 01:06:15;;;;;;;;;17.00;16.00;;;;;18.18;53.74;101766.94;2083767;28;48109;-58
2021/09/23 01:07:18;;;;;;;;;14.50;14.50;;;;;18.17;53.92;101765.19;2083338;28;47980;-58
2021/09/23 01:08:18;;;;;;;;;15.80;15.80;;;;;18.16;53.84;101766.09;2084202;28;46207;-58
2021/09/23 01:09:19;;;;;;;;;14.25;14.25;;;;;18.16;53.80;101765.22;2083879;28;45414;-58
2021/09/23 01:10:21;;;;;;;;;14.00;13.00;;;;;18.15;53.90;101764.34;2084317;28;46084;-58
2021/09/23 01:11:23;;;;;;;;;15.60;12.00;;;;;18.14;53.90;101757.22;2083802;28;47418;-58
2021/09/23 01:12:25;;;;;;;;;13.80;13.80;;;;;18.14;54.07;101753.66;2084178;28;48421;-58
2021/09/23 01:13:26;;;;;;;;;12.20;12.20;;;;;18.14;53.91;101750.97;2083680;28;45432;-58
2021/09/23 01:14:26;;;;;;;;;12.50;12.50;;;;;18.13;53.95;101750.09;2083762;28;47244;-58
2021/09/23 01:15:27;;;;;;;;;13.75;13.00;;;;;18.12;53.84;101744.78;2083396;28;45706;-58
2021/09/23 01:16:27;;;;;;;;;14.75;13.00;;;;;18.12;53.80;101745.66;2084228;28;46338;-58
2021/09/23 01:17:28;;;;;;;;;14.25;13.25;;;;;18.11;54.15;101734.97;2083921;28;47000;-58
2021/09/23 01:18:28;;;;;;;;;14.00;13.00;;;;;18.10;54.05;101731.41;2083990;28;48270;-58
2021/09/23 01:19:30;;;;;;;;;13.75;13.25;;;;;18.10;54.03;101733.22;2083836;28;48109;-58
2021/09/23 01:20:30;;;;;;;;;14.20;14.00;;;;;18.10;54.40;101730.53;2084214;28;45512;-58
2021/09/23 01:21:31;;;;;;;;;11.50;11.50;;;;;18.08;54.44;101727.91;2083673;28;47044;-58
2021/09/23 01:22:31;;;;;;;;;15.00;13.25;;;;;18.08;54.42;101733.28;2085882;28;47545;-58
2021/09/23 01:23:44;;;;;;;;;10.75;10.75;;;;;18.09;54.28;101731.47;2083774;28;47280;-58
2021/09/23 01:24:45;;;;;;;;;13.20;13.20;;;;;18.07;54.42;101731.53;2083526;28;48058;-58
2021/09/23 01:25:46;;;;;;;;;13.75;13.75;;;;;18.07;54.39;101731.53;2083084;28;45968;-58
2021/09/23 01:26:50;;;;;;;;;16.00;15.75;;;;;18.06;54.27;101723.53;2084264;28;47423;-58
2021/09/23 01:27:51;;;;;;;;;12.40;12.40;;;;;18.05;54.31;101719.09;2083130;28;47051;-58
2021/09/23 01:28:51;;;;;;;;;15.20;15.20;;;;;18.05;54.33;101724.47;2083488;28;47370;-58
2021/09/23 01:29:52;;;;;;;;;14.75;14.50;;;;;18.02;54.30;101716.50;2083085;28;47335;-58
2021/09/23 01:30:52;;;;;;;;;12.00;12.00;;;;;18.02;54.61;101716.50;2083361;28;45672;-58
2021/09/23 01:31:53;;;;;;;;;16.50;15.25;;;;;18.02;54.53;101712.00;2083746;28;47216;-58
2021/09/23 01:32:54;;;;;;;;;14.60;13.60;;;;;18.01;54.63;101720.13;2084000;28;48369;-58
2021/09/23 01:33:54;;;;;;;;;16.50;14.25;;;;;18.00;54.52;101721.06;2083600;28;47319;-58
2021/09/23 01:34:54;;;;;;;;;12.00;12.00;;;;;17.99;54.42;101716.63;2084148;28;47203;-62
2021/09/23 01:35:55;;;;;;;;;13.75;13.75;;;;;17.98;54.73;101713.06;2083059;28;47835;-58
2021/09/23 01:36:56;;;;;;;;;13.75;13.75;;;;;17.98;54.73;101717.56;2083542;28;47334;-59
2021/09/23 01:37:56;;;;;;;;;14.25;14.00;;;;;17.97;54.86;101711.31;2082774;28;47685;-58
2021/09/23 01:38:57;;;;;;;;;13.25;13.25;;;;;17.96;54.93;101712.25;2083443;28;46734;-58
2021/09/23 01:39:57;;;;;;;;;11.25;11.25;;;;;17.96;54.68;101708.69;2083758;28;47792;-58
2021/09/23 01:40:58;;;;;;;;;14.25;13.25;;;;;17.96;54.80;101709.56;2075244;28;45608;-58
2021/09/23 01:41:58;;;;;;;;;12.00;12.00;;;;;17.96;54.80;101712.25;2074684;28;47630;-58
2021/09/23 01:42:59;;;;;;;;;13.75;13.00;;;;;17.94;54.80;101706.94;2083262;28;48396;-58
2021/09/23 01:43:59;;;;;;;;;16.25;16.25;;;;;17.94;54.88;101709.63;2083313;28;47212;-57
2021/09/23 01:45:01;;;;;;;;;14.75;14.50;;;;;17.94;54.85;101714.13;2074862;28;47256;-58
2021/09/23 01:46:02;;;;;;;;;13.40;13.40;;;;;17.94;54.80;101712.31;2083166;28;46701;-58
2021/09/23 01:47:02;;;;;;;;;14.75;14.75;;;;;17.96;54.68;101711.38;2074755;28;45290;-58
2021/09/23 01:48:03;;;;;;;;;14.75;14.75;;;;;17.95;54.87;101707.81;2066721;28;46966;-58
2021/09/23 01:49:04;;;;;;;;;17.00;16.00;;;;;17.95;55.09;101715.88;2082899;28;47054;-58
2021/09/23 01:50:05;;;;;;;;;15.00;14.50;;;;;17.95;54.85;101707.81;2087043;28;46987;-58
2021/09/23 01:51:06;;;;;;;;;15.20;15.20;;;;;17.96;54.95;101703.31;2083033;28;48022;-58
2021/09/23 01:52:06;;;;;;;;;13.25;13.25;;;;;17.94;54.70;101703.38;2083816;28;48112;-58
2021/09/23 01:53:07;;;;;;;;;16.25;15.50;;;;;17.94;54.95;101703.38;2082965;28;48193;-58
2021/09/23 01:54:07;;;;;;;;;15.50;15.50;;;;;17.93;54.86;101709.69;2083210;28;46340;-58
2021/09/23 01:55:08;;;;;;;;;14.00;14.00;;;;;17.92;55.04;101706.13;2083635;28;46994;-58
2021/09/23 01:56:09;;;;;;;;;12.75;12.75;;;;;17.92;55.14;101698.06;2083914;28;46834;-57
2021/09/23 01:57:09;;;;;;;;;15.50;15.25;;;;;17.92;55.07;101694.50;2083630;28;47350;-58
2021/09/23 01:58:09;;;;;;;;;14.00;13.25;;;;;17.91;55.05;101695.41;2083083;28;47253;-58
2021/09/23 01:59:10;;;;;;;;;16.75;15.50;;;;;17.90;55.11;101693.66;2074853;28;45330;-59
2021/09/23 02:00:11;;;;;;;;;14.75;14.00;;;;;17.88;54.89;101685.66;2083283;28;46143;-58
2021/09/23 02:01:12;;;;;;;;;14.00;13.60;;;;;17.88;55.08;101692.84;2091304;28;46328;-58
2021/09/23 02:02:13;;;;;;;;;13.60;13.60;;;;;17.87;55.11;101699.16;2091218;28;47337;-58
2021/09/23 02:03:13;;;;;;;;;15.75;14.50;;;;;17.86;55.25;101702.75;2081301;28;48228;-58
2021/09/23 02:04:14;;;;;;;;;15.75;14.25;;;;;17.85;55.04;101704.56;2084036;28;46172;-58
2021/09/23 02:05:14;;;;;;;;;15.25;15.25;;;;;17.86;55.18;101705.44;2083428;28;45565;-58
2021/09/23 02:06:15;;;;;;;;;11.25;10.75;;;;;17.85;54.79;101707.25;2083814;28;46237;-58
2021/09/23 02:07:16;;;;;;;;;13.00;12.00;;;;;17.87;55.01;101707.19;2083482;28;47008;-58
2021/09/23 02:08:16;;;;;;;;;15.50;13.25;;;;;17.87;54.98;101700.03;2082994;28;47652;-58
2021/09/23 02:09:17;;;;;;;;;15.25;14.25;;;;;17.86;54.78;101697.41;2074770;28;46234;-58
2021/09/23 02:10:17;;;;;;;;;16.00;16.00;;;;;17.84;54.93;101685.84;2083247;28;45263;-58
2021/09/23 02:11:18;;;;;;;;;15.75;13.25;;;;;17.84;55.25;101691.22;2083325;28;48176;-58
2021/09/23 02:12:21;;;;;;;;;17.25;14.00;;;;;17.84;55.12;101692.09;2083911;28;47269;-58
2021/09/23 02:13:22;;;;;;;;;13.80;13.80;;;;;17.83;55.44;101693.03;2079616;28;46951;-58
2021/09/23 02:14:23;;;;;;;;;14.75;14.75;;;;;17.82;55.39;101688.59;2069787;28;47606;-58
2021/09/23 02:15:24;;;;;;;;;15.20;15.00;;;;;17.82;55.21;101691.28;2074141;28;48317;-58
2021/09/23 02:16:24;;;;;;;;;15.50;14.50;;;;;17.80;55.07;101685.09;2083011;28;47214;-58
2021/09/23 02:17:25;;;;;;;;;11.67;11.67;;;;;17.81;55.03;101691.31;2083653;28;47475;-58
2021/09/23 02:18:25;;;;;;;;;17.50;17.00;;;;;17.80;55.10;101686.91;2082999;28;48626;-58
2021/09/23 02:19:26;;;;;;;;;14.00;14.00;;;;;17.79;55.16;101686.03;2083023;28;47828;-58
2021/09/23 02:20:26;;;;;;;;;13.50;13.50;;;;;17.78;55.15;101680.69;2091337;28;48337;-59
2021/09/23 02:21:27;;;;;;;;;15.00;14.00;;;;;17.76;55.28;101683.41;2083552;28;47293;-58
2021/09/23 02:22:28;;;;;;;;;12.50;12.50;;;;;17.78;55.10;101683.34;2084436;28;47417;-58
2021/09/23 02:23:28;;;;;;;;;14.00;13.50;;;;;17.78;55.00;101686.91;2083360;28;46983;-58
2021/09/23 02:24:29;;;;;;;;;13.00;13.00;;;;;17.77;55.40;101682.47;2083599;28;47221;-58
2021/09/23 02:25:29;;;;;;;;;17.25;13.00;;;;;17.77;55.07;101685.16;2074670;28;47755;-58
2021/09/23 02:26:30;;;;;;;;;14.00;13.33;;;;;17.75;55.30;101678.97;2074658;28;47339;-58
2021/09/23 02:27:31;;;;;;;;;17.33;16.67;;;;;17.74;55.30;101676.34;2067400;28;48245;-58
2021/09/23 02:28:37;;;;;;;;;11.80;11.80;;;;;17.73;55.41;101682.66;2082943;28;48642;-58
2021/09/23 02:29:38;;;;;;;;;14.40;12.40;;;;;17.72;55.17;101678.22;2083448;28;47471;-58
2021/09/23 02:30:38;;;;;;;;;15.50;15.50;;;;;17.71;55.29;101674.66;2083495;28;48097;-58
2021/09/23 02:31:39;;;;;;;;;14.00;14.00;;;;;17.70;55.30;101667.53;2083416;28;46671;-58
2021/09/23 02:32:40;;;;;;;;;12.75;12.75;;;;;17.71;55.41;101665.75;2082762;28;47178;-58
2021/09/23 02:33:40;;;;;;;;;16.75;16.75;;;;;17.71;55.35;101673.78;2082962;28;48501;-58
2021/09/23 02:34:41;;;;;;;;;15.00;14.00;;;;;17.70;55.30;101677.41;2082914;28;46216;-58
2021/09/23 02:35:41;;;;;;;;;16.00;16.00;;;;;17.69;55.16;101673.84;2074395;28;48285;-58
2021/09/23 02:36:42;;;;;;;;;15.50;15.25;;;;;17.69;55.06;101672.97;2074660;28;47690;-58
2021/09/23 02:37:42;;;;;;;;;14.25;13.25;;;;;17.69;55.63;101675.66;2082548;28;46728;-58
2021/09/23 02:38:43;;;;;;;;;16.00;14.25;;;;;17.68;55.29;101666.69;2083487;28;47278;-58
2021/09/23 02:39:43;;;;;;;;;19.00;16.00;;;;;17.67;55.23;101667.63;2083500;28;47117;-58
2021/09/23 02:40:46;;;;;;;;;14.25;14.25;;;;;17.67;55.25;101674.81;2082904;28;47171;-58
2021/09/23 02:41:47;;;;;;;;;15.00;15.00;;;;;17.67;55.31;101667.63;2082752;28;47956;-58
2021/09/23 02:42:47;;;;;;;;;15.00;13.00;;;;;17.68;55.17;101671.19;2083262;28;48240;-58
2021/09/23 02:43:48;;;;;;;;;16.00;15.50;;;;;17.66;55.34;101668.56;2074328;28;47064;-58
2021/09/23 02:44:48;;;;;;;;;17.50;15.75;;;;;17.67;55.42;101674.81;2066438;28;47076;-58
2021/09/23 02:45:49;;;;;;;;;15.75;15.75;;;;;17.67;55.34;101674.81;2082630;28;46934;-58
2021/09/23 02:46:49;;;;;;;;;14.75;14.75;;;;;17.65;55.35;101675.72;2083465;28;48202;-58
2021/09/23 02:47:50;;;;;;;;;17.25;16.00;;;;;17.65;55.29;101672.16;2082915;28;47009;-58
2021/09/23 02:48:50;;;;;;;;;17.00;15.00;;;;;17.64;55.23;101675.78;2082941;28;47113;-58
2021/09/23 02:49:51;;;;;;;;;16.75;16.50;;;;;17.63;55.52;101672.22;2086574;28;48278;-58
2021/09/23 02:50:52;;;;;;;;;18.00;16.75;;;;;17.64;55.61;101667.72;2083619;28;46854;-58
2021/09/23 02:51:53;;;;;;;;;14.75;14.75;;;;;17.64;55.50;101667.72;2082614;28;47310;-58
2021/09/23 02:52:54;;;;;;;;;16.20;16.20;;;;;17.64;55.41;101671.28;2083582;28;47532;-58
2021/09/23 02:53:54;;;;;;;;;16.50;16.50;;;;;17.65;55.66;101677.53;2083226;28;46739;-58
2021/09/23 02:54:55;;;;;;;;;15.50;15.50;;;;;17.64;55.42;101676.66;2082951;28;48461;-58
2021/09/23 02:55:55;;;;;;;;;15.00;14.50;;;;;17.64;55.39;101670.41;2074455;28;47453;-58
2021/09/23 02:56:56;;;;;;;;;17.00;16.75;;;;;17.65;55.41;101669.47;2082837;28;45517;-58
2021/09/23 02:57:56;;;;;;;;;16.00;15.50;;;;;17.64;55.72;101673.97;2083235;28;47112;-58
2021/09/23 02:58:57;;;;;;;;;16.00;16.00;;;;;17.64;55.46;101673.09;2083322;28;46307;-58
2021/09/23 02:59:57;;;;;;;;;15.75;15.75;;;;;17.63;55.70;101674.91;2082722;28;48479;-58
2021/09/23 03:00:58;;;;;;;;;16.00;15.25;;;;;17.61;55.57;101674.06;2083036;28;45328;-58
2021/09/23 03:01:58;;;;;;;;;18.25;15.25;;;;;17.61;55.54;101668.72;2079945;28;46812;-58
2021/09/23 03:02:59;;;;;;;;;18.50;14.50;;;;;17.60;55.70;101668.78;2082552;28;47721;-58
2021/09/23 03:03:59;;;;;;;;;16.75;15.25;;;;;17.60;55.60;101672.31;2082638;28;48344;-58
2021/09/23 03:05:00;;;;;;;;;16.50;15.00;;;;;17.60;55.45;101663.41;2083188;28;48224;-58
2021/09/23 03:06:00;;;;;;;;;17.00;15.00;;;;;17.60;55.65;101660.72;2083213;28;47283;-58
2021/09/23 03:07:01;;;;;;;;;15.00;15.00;;;;;17.59;55.51;101658.97;2083217;28;47238;-58
2021/09/23 03:08:04;;;;;;;;;15.50;15.25;;;;;17.58;55.44;101659.91;2083067;28;47054;-58
2021/09/23 03:09:04;;;;;;;;;19.60;18.20;;;;;17.57;55.67;101663.53;2076244;28;47466;-62
2021/09/23 03:10:05;;;;;;;;;15.75;14.00;;;;;17.57;55.52;101666.19;2078313;28;47503;-58
2021/09/23 03:11:06;;;;;;;;;20.60;19.80;;;;;17.56;55.83;101654.59;2082520;28;48162;-58
2021/09/23 03:12:07;;;;;;;;;17.75;14.25;;;;;17.54;55.65;101659.13;2083208;28;47091;-58
2021/09/23 03:13:07;;;;;;;;;15.75;15.00;;;;;17.53;55.69;101652.03;2085019;28;48260;-58
2021/09/23 03:14:08;;;;;;;;;17.50;17.00;;;;;17.54;55.85;101655.59;2083565;28;48041;-57
2021/09/23 03:15:09;;;;;;;;;15.80;15.80;;;;;17.54;55.45;101651.09;2073642;28;47995;-58
2021/09/23 03:16:10;;;;;;;;;18.00;15.25;;;;;17.54;55.79;101655.59;2073893;28;47347;-58
2021/09/23 03:17:10;;;;;;;;;20.50;18.50;;;;;17.54;55.66;101658.25;2082659;28;47177;-58
2021/09/23 03:18:10;;;;;;;;;22.50;21.00;;;;;17.53;55.83;101654.72;2083170;28;47006;-58
2021/09/23 03:19:11;;;;;;;;;23.25;23.25;;;;;17.53;55.69;101654.72;2083325;28;47700;-58
2021/09/23 03:20:12;;;;;;;;;22.50;20.50;;;;;17.53;55.82;101659.16;2083246;28;48288;-58
2021/09/23 03:21:13;;;;;;;;;24.20;24.20;;;;;17.53;55.66;101656.47;2082363;28;48122;-58
2021/09/23 03:22:17;;;;;;;;;22.00;22.00;;;;;17.52;55.91;101655.59;2082871;28;47026;-60
2021/09/23 03:23:18;;;;;;;;;22.20;22.20;;;;;17.52;55.82;101658.28;2084326;28;47381;-58
2021/09/23 03:24:18;;;;;;;;;23.75;23.50;;;;;17.52;55.56;101644.00;2082775;28;46690;-58
2021/09/23 03:25:21;;;;;;;;;19.75;19.75;;;;;17.52;55.97;101646.69;2082955;28;47033;-59
2021/09/23 03:26:22;;;;;;;;;25.20;22.00;;;;;17.50;55.98;101644.06;2082606;28;47111;-58
2021/09/23 03:27:22;;;;;;;;;21.50;21.50;;;;;17.50;56.12;101638.69;2082302;28;47289;-57
2021/09/23 03:28:23;;;;;;;;;23.50;21.00;;;;;17.49;56.11;101639.63;2083071;28;45373;-58
2021/09/23 03:29:24;;;;;;;;;18.80;18.80;;;;;17.50;56.00;101644.06;2083016;28;48125;-59
2021/09/23 03:30:25;;;;;;;;;22.00;21.25;;;;;17.48;56.11;101639.69;2083451;28;47985;-59
2021/09/23 03:31:25;;;;;;;;;25.50;23.75;;;;;17.48;56.15;101637.88;2082712;28;46538;-58
2021/09/23 03:32:25;;;;;;;;;20.75;20.75;;;;;17.46;56.26;101637.06;2083304;28;48136;-58
2021/09/23 03:33:26;;;;;;;;;24.25;22.75;;;;;17.46;55.92;101633.50;2082468;28;47308;-58
2021/09/23 03:34:26;;;;;;;;;21.75;21.75;;;;;17.45;55.90;101637.13;2082663;28;48101;-58
2021/09/23 03:35:27;;;;;;;;;20.75;20.75;;;;;17.45;56.32;101639.81;2082460;28;48291;-58
2021/09/23 03:36:28;;;;;;;;;23.00;21.50;;;;;17.44;56.18;101636.25;2080335;28;47441;-58
2021/09/23 03:37:28;;;;;;;;;20.50;19.00;;;;;17.43;55.96;101633.63;2082392;28;47210;-58
2021/09/23 03:38:30;;;;;;;;;19.75;19.75;;;;;17.42;56.28;101630.06;2074265;28;46782;-58
2021/09/23 03:39:30;;;;;;;;;23.00;22.80;;;;;17.43;56.12;101633.63;2082303;28;46009;-59
2021/09/23 03:40:31;;;;;;;;;23.50;20.00;;;;;17.41;56.30;101628.31;2083274;28;47801;-58
2021/09/23 03:41:32;;;;;;;;;21.50;21.50;;;;;17.42;56.32;101626.50;2082871;28;47311;-58
2021/09/23 03:42:33;;;;;;;;;21.80;21.60;;;;;17.41;56.22;101630.13;2082474;28;47501;-58
2021/09/23 03:43:33;;;;;;;;;27.50;24.00;;;;;17.40;56.20;101626.53;2082147;28;48157;-57
2021/09/23 03:44:34;;;;;;;;;21.25;20.50;;;;;17.40;56.39;101631.91;2082613;28;46993;-58
2021/09/23 03:45:34;;;;;;;;;23.25;22.00;;;;;17.39;56.36;101621.22;2082248;28;47416;-58
2021/09/23 03:46:35;;;;;;;;;21.75;21.50;;;;;17.39;56.09;101623.91;2083233;28;47516;-59
2021/09/23 03:47:36;;;;;;;;;18.00;18.00;;;;;17.38;56.48;101624.84;2082845;28;46454;-58
2021/09/23 03:48:36;;;;;;;;;24.25;22.25;;;;;17.36;56.23;101617.72;2083290;28;47132;-58
2021/09/23 03:49:37;;;;;;;;;21.00;21.00;;;;;17.34;56.83;101621.38;2082286;28;48396;-58
2021/09/23 03:50:38;;;;;;;;;26.00;23.25;;;;;17.34;56.42;101621.38;2066221;28;47860;-58
2021/09/23 03:51:38;;;;;;;;;25.00;21.75;;;;;17.32;56.50;101618.75;2070056;28;47423;-59
2021/09/23 03:52:40;;;;;;;;;23.00;21.25;;;;;17.31;56.78;101625.06;2082652;28;47207;-59
2021/09/23 03:53:41;;;;;;;;;24.80;22.80;;;;;17.33;56.77;101619.63;2082443;28;45314;-53
2021/09/23 03:54:42;;;;;;;;;20.80;19.00;;;;;17.33;56.56;101628.56;2083306;28;45633;-55
2021/09/23 03:55:42;;;;;;;;;23.25;23.25;;;;;17.32;56.50;101632.19;2082963;28;47340;-57
2021/09/23 03:56:43;;;;;;;;;24.50;20.75;;;;;17.33;56.80;101625.88;2083024;28;48311;-58
2021/09/23 03:57:44;;;;;;;;;23.25;21.25;;;;;17.34;56.81;101621.38;2082499;28;47067;-58
2021/09/23 03:58:45;;;;;;;;;22.40;22.20;;;;;17.33;56.80;101625.88;2074181;28;46610;-57
2021/09/23 03:59:48;;;;;;;;;22.00;21.60;;;;;17.33;56.80;101633.94;2074136;28;47149;-57
2021/09/23 04:00:49;;;;;;;;;20.60;20.60;;;;;17.33;56.52;101625.00;2074751;28;47472;-57
2021/09/23 04:01:49;;;;;;;;;27.50;25.25;;;;;17.34;56.62;101634.81;2082625;28;47340;-57
2021/09/23 04:02:50;;;;;;;;;29.00;24.50;;;;;17.34;56.54;101632.13;2082008;28;48387;-58
2021/09/23 04:03:50;;;;;;;;;25.00;25.00;;;;;17.33;56.40;101628.56;2082383;28;47257;-57
2021/09/23 04:04:51;;;;;;;;;29.50;26.25;;;;;17.35;56.41;101640.13;2082341;28;45504;-57
2021/09/23 04:05:51;;;;;;;;;29.75;28.50;;;;;17.34;56.34;101635.69;2074071;28;45029;-56
2021/09/23 04:06:52;;;;;;;;;31.50;27.00;;;;;17.34;56.46;101632.13;2082341;28;48121;-56
2021/09/23 04:07:52;;;;;;;;;27.75;27.00;;;;;17.33;56.49;101636.63;2081989;28;47238;-56
2021/09/23 04:08:53;;;;;;;;;29.25;24.75;;;;;17.34;56.75;101637.50;2082303;28;45197;-57
2021/09/23 04:09:53;;;;;;;;;27.25;27.25;;;;;17.34;56.46;101640.16;2083205;28;45244;-57
2021/09/23 04:10:54;;;;;;;;;27.75;26.25;;;;;17.33;56.47;101639.31;2083697;28;47168;-57
2021/09/23 04:11:54;;;;;;;;;29.00;24.50;;;;;17.33;56.69;101638.44;2083681;28;47357;-57
2021/09/23 04:12:55;;;;;;;;;26.75;26.75;;;;;17.32;56.53;101639.34;2083757;28;48179;-57
2021/09/23 04:13:56;;;;;;;;;32.20;30.20;;;;;17.32;56.60;101636.66;2086852;28;48653;-57
2021/09/23 04:14:56;;;;;;;;;27.00;25.75;;;;;17.32;56.79;101640.22;2084572;28;47178;-57
2021/09/23 04:15:57;;;;;;;;;27.50;26.75;;;;;17.32;56.82;101642.03;2084367;28;48284;-57
2021/09/23 04:16:58;;;;;;;;;31.25;29.25;;;;;17.31;56.78;101638.47;2084365;28;47382;-57
2021/09/23 04:17:58;;;;;;;;;30.00;27.25;;;;;17.30;56.64;101636.72;2084347;28;47005;-57
2021/09/23 04:18:59;;;;;;;;;31.00;30.25;;;;;17.30;56.60;101636.72;2084153;28;48297;-57
2021/09/23 04:20:00;;;;;;;;;32.40;30.00;;;;;17.29;56.63;101636.78;2083965;28;48276;-57
2021/09/23 04:21:01;;;;;;;;;29.75;29.75;;;;;17.28;56.83;101627.88;2075334;28;47162;-57
2021/09/23 04:22:03;;;;;;;;;33.75;29.25;;;;;17.28;56.89;101630.53;2083818;28;46073;-57
2021/09/23 04:23:03;;;;;;;;;28.20;27.60;;;;;17.28;56.65;101630.53;2089050;28;47628;-57
2021/09/23 04:24:04;;;;;;;;;30.00;27.75;;;;;17.28;56.73;101630.53;2084433;28;48354;-57
2021/09/23 04:25:05;;;;;;;;;30.00;29.75;;;;;17.28;56.90;101629.66;2083638;28;48073;-57
2021/09/23 04:26:05;;;;;;;;;28.20;28.20;;;;;17.28;57.03;101630.53;2075605;28;48564;-57
2021/09/23 04:27:06;;;;;;;;;32.50;29.25;;;;;17.28;57.12;101635.91;2083447;28;48964;-57
2021/09/23 04:28:07;;;;;;;;;29.00;27.00;;;;;17.29;57.04;101636.78;2084168;28;48126;-57
2021/09/23 04:29:08;;;;;;;;;32.75;31.75;;;;;17.29;56.94;101631.41;2084525;28;45919;-57
2021/09/23 04:30:09;;;;;;;;;30.40;29.40;;;;;17.27;57.24;101634.13;2084426;28;46247;-57
2021/09/23 04:31:10;;;;;;;;;30.00;28.60;;;;;17.28;57.26;101641.28;2084173;28;45369;-57
2021/09/23 04:32:11;;;;;;;;;29.75;28.50;;;;;17.28;57.11;101635.91;2084324;28;47202;-56
2021/09/23 04:33:12;;;;;;;;;28.80;27.60;;;;;17.28;57.05;101645.78;2083477;28;48133;-57
2021/09/23 04:34:12;;;;;;;;;31.75;30.50;;;;;17.29;57.10;101644.84;2075478;28;46717;-57
2021/09/23 04:35:13;;;;;;;;;33.50;31.25;;;;;17.28;56.93;101643.97;2083500;28;47318;-57
2021/09/23 04:36:13;;;;;;;;;36.25;32.00;;;;;17.29;57.11;101647.53;2084321;28;47144;-57
2021/09/23 04:37:14;;;;;;;;;30.00;26.75;;;;;17.28;56.84;101638.59;2084313;28;47517;-57
2021/09/23 04:38:17;;;;;;;;;30.00;29.50;;;;;17.29;56.95;101642.16;2083860;28;47124;-57